createdAt,value
2022-09-15T00:10:16.328Z,0
2022-09-15T00:24:16.323Z,0
2022-09-15T00:38:16.327Z,0
2022-09-15T00:52:16.337Z,0
2022-09-15T01:06:16.330Z,0.2
2022-09-15T01:20:16.358Z,0.6
2022-09-15T01:34:16.356Z,0
2022-09-15T01:48:16.349Z,0.6
2022-09-15T02:02:16.406Z,0
2022-09-15T02:16:16.474Z,0
2022-09-15T02:30:16.364Z,0
2022-09-15T02:44:16.394Z,0
2022-09-15T02:58:16.384Z,0
2022-09-15T03:12:16.380Z,0
2022-09-15T03:26:16.362Z,0
2022-09-15T03:40:16.503Z,0
2022-09-15T03:54:16.421Z,0
2022-09-15T04:08:16.430Z,0
2022-09-15T04:22:17.926Z,0
2022-09-15T04:36:16.433Z,0
2022-09-15T04:51:16.430Z,0
2022-09-15T05:06:16.413Z,0
2022-09-15T05:21:16.419Z,0
2022-09-15T05:37:16.441Z,0
2022-09-15T05:52:16.434Z,0
2022-09-15T06:07:16.452Z,0.2
2022-09-15T06:22:16.454Z,0.4
2022-09-15T06:37:16.460Z,0.6
2022-09-15T06:52:16.482Z,0.2
2022-09-15T07:07:16.451Z,0
2022-09-15T07:22:16.480Z,0.6
2022-09-15T07:37:16.488Z,1.0
2022-09-15T07:52:16.506Z,0.4
2022-09-15T08:07:16.483Z,0.4
2022-09-15T08:22:16.493Z,0.6
2022-09-15T08:37:16.484Z,0
2022-09-15T08:53:16.520Z,0.8
2022-09-15T09:08:16.553Z,0.2
2022-09-15T09:23:16.527Z,0.6
2022-09-15T09:38:16.531Z,0.6
2022-09-15T09:53:16.586Z,0.6
2022-09-15T10:08:16.691Z,0.9
2022-09-15T10:23:16.663Z,0.8
2022-09-15T10:38:16.658Z,0.9
2022-09-15T10:54:16.682Z,1.1
2022-09-15T11:09:16.675Z,1.7
2022-09-15T11:24:16.710Z,1.3
2022-09-15T11:39:16.681Z,1.6
2022-09-15T11:54:16.744Z,1.1
2022-09-15T12:09:16.736Z,0.6
2022-09-15T12:24:16.749Z,1.2
2022-09-15T12:39:16.836Z,0.9
2022-09-15T12:54:16.853Z,1.5
2022-09-15T13:09:16.834Z,2.2
2022-09-15T13:24:16.864Z,2.1
2022-09-15T13:39:16.944Z,2.8
2022-09-15T13:54:16.984Z,3.1
2022-09-15T14:09:16.938Z,2.5
2022-09-15T14:24:17.042Z,2.5
2022-09-15T14:39:16.957Z,1.9
2022-09-15T14:54:16.965Z,2.2
2022-09-15T15:09:16.992Z,2.6
2022-09-15T15:24:16.988Z,1.4
2022-09-15T15:39:16.973Z,2.3
2022-09-15T15:54:16.979Z,1.1
2022-09-15T16:09:17.013Z,0.9
2022-09-15T16:24:17.029Z,1.4
2022-09-15T16:39:16.976Z,0.9
2022-09-15T16:54:17.016Z,0
2022-09-15T17:09:17.516Z,0.8
2022-09-15T17:24:17.179Z,0
2022-09-15T17:39:17.239Z,0
2022-09-15T17:54:17.249Z,0
2022-09-15T18:08:17.286Z,0
2022-09-15T18:22:17.326Z,0
2022-09-15T18:36:17.302Z,0
2022-09-15T18:50:17.339Z,0
2022-09-15T19:04:17.486Z,0
2022-09-15T19:18:17.552Z,0
2022-09-15T19:32:17.553Z,0
2022-09-15T19:46:17.625Z,0
2022-09-15T20:00:17.550Z,0
2022-09-15T20:14:17.579Z,0
2022-09-15T20:28:17.690Z,0.8
2022-09-15T20:42:17.705Z,0.9
2022-09-15T20:56:17.706Z,0.8
2022-09-15T21:10:17.725Z,0.7
2022-09-15T21:24:17.743Z,1.9
2022-09-15T21:38:17.713Z,0.4
2022-09-15T21:52:17.748Z,0.8
2022-09-15T22:06:17.745Z,0.8
2022-09-15T22:20:17.843Z,0
2022-09-15T22:34:17.871Z,0
2022-09-15T22:48:17.857Z,0
2022-09-15T23:02:18.072Z,0
2022-09-15T23:16:18.045Z,0
2022-09-15T23:30:18.021Z,0
2022-09-15T23:44:18.010Z,0.8
2022-09-15T23:58:18.054Z,0
